Time,TemperatureF,DewpointF,PressureIn,WindDirection,WindDirectionDegrees,WindSpeedMPH,WindSpeedGustMPH,Humidity,HourlyPrecipIn,Conditions,Clouds,dailyrainin,SoftwareType,DateUTC
2013-08-14 00:01:00,69.8,64.1,28.94,South,191,0.0,0.0,82,0.00,,---,0.00,VWS V14.01,2013-08-14 04:01:00,
2013-08-14 00:02:00,69.8,64.1,28.94,South,191,0.0,0.0,82,0.00,,---,0.00,VWS V14.01,2013-08-14 04:02:00,
2013-08-14 00:03:00,69.8,64.1,28.94,South,191,0.0,0.0,82,0.00,,---,0.00,VWS V14.01,2013-08-14 04:03:00,
2013-08-14 00:07:00,69.8,64.1,28.94,South,191,0.0,0.0,82,0.00,,---,0.00,VWS V14.01,2013-08-14 04:07:00,
2013-08-14 00:12:00,69.8,64.1,28.94,South,191,0.0,0.0,82,0.00,,---,0.00,VWS V14.01,2013-08-14 04:12:00,
2013-08-14 00:17:00,69.8,64.1,28.94,South,191,0.0,0.0,82,0.00,,---,0.00,VWS V14.01,2013-08-14 04:17:00,
2013-08-14 00:22:00,69.8,64.1,28.94,South,191,0.0,0.0,82,0.00,,---,0.00,VWS V14.01,2013-08-14 04:22:00,
2013-08-14 00:27:00,69.8,64.1,28.94,South,191,0.0,0.0,82,0.00,,---,0.00,VWS V14.01,2013-08-14 04:27:00,
2013-08-14 00:32:00,69.8,64.1,28.94,South,191,0.0,0.0,82,0.00,,---,0.00,VWS V14.01,2013-08-14 04:32:00,
2013-08-14 00:37:00,69.8,64.1,28.94,South,191,0.0,0.0,82,0.00,,---,0.00,VWS V14.01,2013-08-14 04:37:00,
2013-08-14 00:42:00,69.8,64.1,28.94,South,191,0.0,0.0,82,0.00,,---,0.00,VWS V14.01,2013-08-14 04:42:00,
2013-08-14 00:47:00,69.8,64.1,28.94,South,191,0.0,0.0,82,0.00,,---,0.00,VWS V14.01,2013-08-14 04:47:00,
2013-08-14 00:52:00,69.8,64.1,28.94,South,191,0.0,0.0,82,0.00,,---,0.00,VWS V14.01,2013-08-14 04:52:00,
2013-08-14 00:57:00,69.8,64.1,28.94,South,191,0.0,0.0,82,0.00,,---,0.00,VWS V14.01,2013-08-14 04:57:00,
2013-08-14 01:02:00,69.8,64.1,28.94,South,191,0.0,0.0,82,0.00,,---,0.00,VWS V14.01,2013-08-14 05:02:00,
2013-08-14 01:07:00,69.8,64.1,28.94,South,191,0.0,0.0,82,0.00,,---,0.00,VWS V14.01,2013-08-14 05:07:00,
2013-08-14 01:12:00,69.8,64.1,28.94,South,191,0.0,0.0,82,0.00,,---,0.00,VWS V14.01,2013-08-14 05:12:00,
2013-08-14 01:17:00,69.8,64.1,28.94,South,191,0.0,0.0,82,0.00,,---,0.00,VWS V14.01,2013-08-14 05:17:00,
2013-08-14 01:22:00,69.8,64.1,28.94,South,191,0.0,0.0,82,0.00,,---,0.00,VWS V14.01,2013-08-14 05:22:00,
2013-08-14 01:27:00,69.8,64.1,28.94,South,191,0.0,0.0,82,0.00,,---,0.00,VWS V14.01,2013-08-14 05:27:00,
2013-08-14 01:32:00,69.8,64.1,28.94,South,191,0.0,0.0,82,0.00,,---,0.00,VWS V14.01,2013-08-14 05:32:00,
2013-08-14 01:37:00,69.8,64.1,28.94,South,191,0.0,0.0,82,0.00,,---,0.00,VWS V14.01,2013-08-14 05:37:00,
2013-08-14 01:42:00,69.8,64.1,28.94,South,191,0.0,0.0,82,0.00,,---,0.00,VWS V14.01,2013-08-14 05:42:00,
2013-08-14 01:47:00,69.8,64.1,28.94,South,191,0.0,0.0,82,0.00,,---,0.00,VWS V14.01,2013-08-14 05:47:00,
2013-08-14 01:52:00,69.8,64.1,28.94,South,191,0.0,0.0,82,0.00,,---,0.00,VWS V14.01,2013-08-14 05:52:00,
2013-08-14 01:57:00,69.8,64.1,28.94,South,191,0.0,0.0,82,0.00,,---,0.00,VWS V14.01,2013-08-14 05:57:00,
2013-08-14 02:02:00,69.8,64.1,28.94,South,191,0.0,0.0,82,0.00,,---,0.00,VWS V14.01,2013-08-14 06:02:00,
2013-08-14 02:07:00,69.8,64.1,28.94,South,191,0.0,0.0,82,0.00,,---,0.00,VWS V14.01,2013-08-14 06:07:00,
2013-08-14 02:12:00,69.8,64.1,28.94,ESE,118,0.0,0.0,82,0.00,,---,0.00,VWS V14.01,2013-08-14 06:12:00,
2013-08-14 02:17:00,69.8,64.1,28.94,East,89,0.0,0.0,82,0.00,,---,0.00,VWS V14.01,2013-08-14 06:17:00,
2013-08-14 02:22:00,69.8,64.1,28.94,East,89,0.0,0.0,82,0.00,,---,0.00,VWS V14.01,2013-08-14 06:22:00,
2013-08-14 02:27:00,69.8,64.1,28.94,East,89,0.0,0.0,82,0.00,,---,0.00,VWS V14.01,2013-08-14 06:27:00,
2013-08-14 02:32:00,69.8,64.1,28.94,East,89,0.0,0.0,82,0.00,,---,0.00,VWS V14.01,2013-08-14 06:32:00,
2013-08-14 02:37:00,69.8,64.1,28.94,East,89,0.0,0.0,82,0.00,,---,0.00,VWS V14.01,2013-08-14 06:37:00,
2013-08-14 02:42:00,69.8,64.1,28.94,East,89,0.0,0.0,82,0.00,,---,0.00,VWS V14.01,2013-08-14 06:42:00,
2013-08-14 02:47:00,69.8,64.1,28.94,East,89,0.0,0.0,82,0.00,,---,0.00,VWS V14.01,2013-08-14 06:47:00,
2013-08-14 02:52:00,69.8,64.1,28.94,East,89,0.0,0.0,82,0.00,,---,0.00,VWS V14.01,2013-08-14 06:52:00,
2013-08-14 02:57:00,69.8,64.1,28.94,East,89,0.0,0.0,82,0.00,,---,0.00,VWS V14.01,2013-08-14 06:57:00,
2013-08-14 03:02:00,69.8,64.1,28.94,East,89,0.0,0.0,82,0.00,,---,0.00,VWS V14.01,2013-08-14 07:02:00,
2013-08-14 03:07:00,69.8,64.1,28.94,East,89,0.0,0.0,82,0.00,,---,0.00,VWS V14.01,2013-08-14 07:07:00,
2013-08-14 03:12:00,69.8,64.1,28.94,SE,125,0.0,0.0,82,0.00,,---,0.00,VWS V14.01,2013-08-14 07:12:00,
2013-08-14 03:17:00,69.8,64.1,28.97,SE,125,0.0,0.0,82,0.00,,---,0.00,VWS V14.01,2013-08-14 07:17:00,
2013-08-14 03:22:00,69.8,64.1,28.97,SE,125,0.0,0.0,82,0.00,,---,0.00,VWS V14.01,2013-08-14 07:22:00,
2013-08-14 03:27:00,69.8,64.1,28.97,East,86,0.0,2.7,82,0.00,,---,0.00,VWS V14.01,2013-08-14 07:27:00,
2013-08-14 03:32:00,64.0,58.4,28.97,East,86,0.0,0.0,82,0.00,,---,0.00,VWS V14.01,2013-08-14 07:32:00,
2013-08-14 03:37:00,63.9,57.9,28.97,East,86,0.0,0.0,81,0.00,,---,0.00,VWS V14.01,2013-08-14 07:37:00,
2013-08-14 03:42:00,63.9,58.3,28.97,East,86,0.0,0.0,82,0.00,,---,0.00,VWS V14.01,2013-08-14 07:42:00,
2013-08-14 03:47:00,63.7,58.1,28.97,NNW,335,0.0,4.0,82,0.00,,---,0.00,VWS V14.01,2013-08-14 07:47:00,
2013-08-14 03:52:00,63.5,57.9,28.97,NNW,335,0.0,0.0,82,0.00,,---,0.00,VWS V14.01,2013-08-14 07:52:00,
2013-08-14 03:57:00,63.0,57.0,28.97,SSE,156,2.7,3.6,81,0.00,,---,0.00,VWS V14.01,2013-08-14 07:57:00,
2013-08-14 04:02:00,62.6,56.0,28.97,SE,126,0.0,4.5,79,0.00,,---,0.00,VWS V14.01,2013-08-14 08:02:00,
2013-08-14 04:07:00,62.2,54.2,28.97,SE,127,0.0,0.0,75,0.00,,---,0.00,VWS V14.01,2013-08-14 08:07:00,
2013-08-14 04:12:00,61.7,51.4,28.97,ENE,67,4.0,4.0,69,0.00,,---,0.00,VWS V14.01,2013-08-14 08:12:00,
2013-08-14 04:17:00,61.5,49.7,28.97,NW,313,0.0,0.0,65,0.00,,---,0.00,VWS V14.01,2013-08-14 08:17:00,
2013-08-14 04:22:00,61.2,48.0,28.97,ENE,69,0.0,4.0,62,0.00,,---,0.00,VWS V14.01,2013-08-14 08:22:00,
2013-08-14 04:27:00,61.0,47.9,28.97,East,80,2.7,4.0,62,0.00,,---,0.00,VWS V14.01,2013-08-14 08:27:00,
2013-08-14 04:32:00,60.6,46.2,28.97,WNW,289,0.0,5.8,59,0.00,,---,0.00,VWS V14.01,2013-08-14 08:32:00,
2013-08-14 04:37:00,60.4,45.6,28.97,ENE,58,0.0,3.6,58,0.00,,---,0.00,VWS V14.01,2013-08-14 08:37:00,
2013-08-14 04:42:00,60.3,45.0,28.97,East,95,0.0,0.0,57,0.00,,---,0.00,VWS V14.01,2013-08-14 08:42:00,
2013-08-14 04:47:00,60.1,44.8,28.97,NE,51,0.0,3.6,57,0.00,,---,0.00,VWS V14.01,2013-08-14 08:47:00,
2013-08-14 04:52:00,59.9,44.7,28.97,NNW,346,0.0,0.0,57,0.00,,---,0.00,VWS V14.01,2013-08-14 08:52:00,
2013-08-14 04:57:00,59.7,44.5,28.97,East,79,4.9,4.9,57,0.00,,---,0.00,VWS V14.01,2013-08-14 08:57:00,
2013-08-14 05:02:00,59.4,43.7,28.97,SE,143,0.0,4.0,56,0.00,,---,0.00,VWS V14.01,2013-08-14 09:02:00,
2013-08-14 05:07:00,59.2,43.0,28.97,East,87,2.7,4.0,55,0.00,,---,0.00,VWS V14.01,2013-08-14 09:07:00,
2013-08-14 05:12:00,58.8,42.2,28.97,East,93,0.0,4.0,54,0.00,,---,0.00,VWS V14.01,2013-08-14 09:12:00,
2013-08-14 05:17:00,58.8,42.2,28.97,SE,137,0.0,0.0,54,0.00,,---,0.00,VWS V14.01,2013-08-14 09:17:00,
2013-08-14 05:22:00,58.5,41.4,28.97,NNE,23,0.0,0.0,53,0.00,,---,0.00,VWS V14.01,2013-08-14 09:22:00,
2013-08-14 05:27:00,58.5,40.9,28.97,SSE,159,0.0,0.0,52,0.00,,---,0.00,VWS V14.01,2013-08-14 09:27:00,
2013-08-14 05:32:00,58.1,40.6,28.97,South,178,0.0,0.0,52,0.00,,---,0.00,VWS V14.01,2013-08-14 09:32:00,
2013-08-14 05:37:00,58.1,41.1,28.97,South,178,0.0,0.0,53,0.00,,---,0.00,VWS V14.01,2013-08-14 09:37:00,
2013-08-14 05:42:00,57.9,40.9,28.97,South,178,0.0,0.0,53,0.00,,---,0.00,VWS V14.01,2013-08-14 09:42:00,
2013-08-14 05:47:00,57.7,41.2,28.97,South,178,0.0,0.0,54,0.00,,---,0.00,VWS V14.01,2013-08-14 09:47:00,
2013-08-14 05:52:00,57.6,41.1,28.97,South,178,0.0,0.0,54,0.00,,---,0.00,VWS V14.01,2013-08-14 09:52:00,
2013-08-14 05:57:00,57.2,40.7,28.97,South,175,0.0,3.6,54,0.00,,---,0.00,VWS V14.01,2013-08-14 09:57:00,
2013-08-14 06:02:00,57.2,41.2,28.97,SSE,161,0.0,0.0,55,0.00,,---,0.00,VWS V14.01,2013-08-14 10:02:00,
2013-08-14 06:07:00,56.8,41.3,28.97,SE,134,0.0,3.6,56,0.00,,---,0.00,VWS V14.01,2013-08-14 10:07:00,
2013-08-14 06:13:00,56.7,41.2,28.97,SE,134,0.0,0.0,56,0.00,,---,0.00,VWS V14.01,2013-08-14 10:13:00,
2013-08-14 06:18:00,56.7,40.7,28.97,ESE,109,0.0,2.7,55,0.00,,---,0.00,VWS V14.01,2013-08-14 10:18:00,
2013-08-14 06:23:00,56.5,40.5,28.97,SE,139,0.0,0.0,55,0.00,,---,0.00,VWS V14.01,2013-08-14 10:23:00,
2013-08-14 06:28:00,56.7,41.2,28.97,SE,132,0.0,4.5,56,0.00,,---,0.00,VWS V14.01,2013-08-14 10:28:00,
2013-08-14 06:33:00,56.7,41.2,29.00,SSE,149,0.0,4.5,56,0.00,,---,0.00,VWS V14.01,2013-08-14 10:33:00,
2013-08-14 06:38:00,56.8,41.8,29.00,ESE,111,0.0,3.6,57,0.00,,---,0.00,VWS V14.01,2013-08-14 10:38:00,
2013-08-14 06:43:00,56.8,41.3,29.00,SE,133,0.0,0.0,56,0.00,,---,0.00,VWS V14.01,2013-08-14 10:43:00,
2013-08-14 06:48:00,56.8,40.9,29.00,SSW,212,0.0,0.0,55,0.00,,---,0.00,VWS V14.01,2013-08-14 10:48:00,
2013-08-14 06:53:00,56.8,40.9,29.00,SSW,204,0.0,0.0,55,0.00,,---,0.00,VWS V14.01,2013-08-14 10:53:00,
2013-08-14 06:58:00,57.0,40.6,29.00,SSW,204,0.0,0.0,54,0.00,,---,0.00,VWS V14.01,2013-08-14 10:58:00,
2013-08-14 07:03:00,57.0,40.1,29.00,NNW,333,0.0,0.0,53,0.00,,---,0.00,VWS V14.01,2013-08-14 11:03:00,
2013-08-14 07:08:00,57.2,39.8,29.00,NNE,24,0.0,0.0,52,0.00,,---,0.00,VWS V14.01,2013-08-14 11:08:00,
2013-08-14 07:13:00,57.6,40.6,29.00,East,79,0.0,0.0,53,0.00,,---,0.00,VWS V14.01,2013-08-14 11:13:00,
2013-08-14 07:18:00,57.6,39.1,29.00,ESE,102,0.0,0.0,50,0.00,,---,0.00,VWS V14.01,2013-08-14 11:18:00,
2013-08-14 07:23:00,57.9,40.4,29.00,ENE,62,0.0,0.0,52,0.00,,---,0.00,VWS V14.01,2013-08-14 11:23:00,
2013-08-14 07:28:00,58.3,39.7,29.00,ENE,74,3.6,3.6,50,0.00,,---,0.00,VWS V14.01,2013-08-14 11:28:00,
2013-08-14 07:33:00,58.5,39.4,29.00,East,79,0.0,4.0,49,0.00,,---,0.00,VWS V14.01,2013-08-14 11:33:00,
2013-08-14 07:38:00,58.8,39.7,29.00,SE,125,0.0,0.0,49,0.00,,---,0.00,VWS V14.01,2013-08-14 11:38:00,
2013-08-14 07:43:00,59.0,38.8,29.00,East,87,0.0,4.5,47,0.00,,---,0.00,VWS V14.01,2013-08-14 11:43:00,
2013-08-14 07:48:00,59.2,37.9,29.00,ESE,115,0.0,0.0,45,0.00,,---,0.00,VWS V14.01,2013-08-14 11:48:00,
2013-08-14 07:53:00,59.4,38.6,29.00,East,83,0.0,0.0,46,0.00,,---,0.00,VWS V14.01,2013-08-14 11:53:00,
2013-08-14 07:58:00,59.7,38.9,29.00,NE,35,0.0,0.0,46,0.00,,---,0.00,VWS V14.01,2013-08-14 11:58:00,
2013-08-14 08:03:00,59.7,37.8,29.00,NE,45,4.0,4.5,44,0.00,,---,0.00,VWS V14.01,2013-08-14 12:03:00,
2013-08-14 08:08:00,60.1,36.9,29.00,NNE,23,0.0,3.1,42,0.00,,---,0.00,VWS V14.01,2013-08-14 12:08:00,
2013-08-14 08:13:00,60.4,37.3,29.00,ENE,62,0.0,4.0,42,0.00,,---,0.00,VWS V14.01,2013-08-14 12:13:00,
2013-08-14 08:18:00,60.6,38.6,29.00,East,80,0.0,0.0,44,0.00,,---,0.00,VWS V14.01,2013-08-14 12:18:00,
2013-08-14 08:23:00,61.2,38.5,29.00,ENE,58,0.0,0.0,43,0.00,,---,0.00,VWS V14.01,2013-08-14 12:23:00,
2013-08-14 08:28:00,61.7,37.2,29.00,NE,48,0.0,4.5,40,0.00,,---,0.00,VWS V14.01,2013-08-14 12:28:00,
2013-08-14 08:33:00,62.2,37.0,29.00,ESE,112,0.0,0.0,39,0.00,,---,0.00,VWS V14.01,2013-08-14 12:33:00,
2013-08-14 08:38:00,62.6,35.3,29.00,ENE,75,2.7,3.6,36,0.00,,---,0.00,VWS V14.01,2013-08-14 12:38:00,
2013-08-14 08:43:00,63.1,35.8,29.00,NE,36,3.1,3.1,36,0.00,,---,0.00,VWS V14.01,2013-08-14 12:43:00,
2013-08-14 08:48:00,63.5,36.8,29.03,WSW,242,0.0,2.7,37,0.00,,---,0.00,VWS V14.01,2013-08-14 12:48:00,
2013-08-14 08:53:00,63.5,34.7,29.03,ESE,123,2.7,3.6,34,0.00,,---,0.00,VWS V14.01,2013-08-14 12:53:00,
2013-08-14 08:58:00,63.7,35.5,29.03,East,92,0.0,0.0,35,0.00,,---,0.00,VWS V14.01,2013-08-14 12:58:00,
2013-08-14 09:03:00,64.2,36.0,29.03,ENE,71,0.0,0.0,35,0.00,,---,0.00,VWS V14.01,2013-08-14 13:03:00,
2013-08-14 09:08:00,64.6,36.3,29.03,East,79,0.0,3.6,35,0.00,,---,0.00,VWS V14.01,2013-08-14 13:08:00,
2013-08-14 09:13:00,64.6,34.8,29.03,East,98,0.0,0.0,33,0.00,,---,0.00,VWS V14.01,2013-08-14 13:13:00,
2013-08-14 09:18:00,64.8,34.2,29.03,East,93,0.0,0.0,32,0.00,,---,0.00,VWS V14.01,2013-08-14 13:18:00,
2013-08-14 09:23:00,65.3,36.2,29.03,East,93,0.0,3.6,34,0.00,,---,0.00,VWS V14.01,2013-08-14 13:23:00,
2013-08-14 09:28:00,65.5,35.6,29.03,East,89,0.0,0.0,33,0.00,,---,0.00,VWS V14.01,2013-08-14 13:28:00,
2013-08-14 09:33:00,65.8,35.2,29.03,SW,232,4.0,4.0,32,0.00,,---,0.00,VWS V14.01,2013-08-14 13:33:00,
2013-08-14 09:38:00,66.0,36.1,29.03,SE,131,3.1,3.1,33,0.00,,---,0.00,VWS V14.01,2013-08-14 13:38:00,
2013-08-14 09:43:00,66.2,33.0,29.03,ENE,59,0.0,3.1,29,0.00,,---,0.00,VWS V14.01,2013-08-14 13:43:00,
2013-08-14 09:48:00,66.6,35.8,29.03,ESE,115,3.1,3.1,32,0.00,,---,0.00,VWS V14.01,2013-08-14 13:48:00,
2013-08-14 09:53:00,66.7,35.2,29.03,NE,47,0.0,3.6,31,0.00,,---,0.00,VWS V14.01,2013-08-14 13:53:00,
2013-08-14 09:58:00,66.9,36.1,29.03,ESE,103,4.5,4.5,32,0.00,,---,0.00,VWS V14.01,2013-08-14 13:58:00,
2013-08-14 10:03:00,67.3,33.1,29.03,ENE,73,0.0,4.9,28,0.00,,---,0.00,VWS V14.01,2013-08-14 14:03:00,
2013-08-14 10:08:00,68.0,35.4,29.03,ENE,60,3.6,4.9,30,0.00,,---,0.00,VWS V14.01,2013-08-14 14:08:00,
2013-08-14 10:13:00,68.2,33.9,29.03,East,101,0.0,2.7,28,0.00,,---,0.00,VWS V14.01,2013-08-14 14:13:00,
2013-08-14 10:18:00,68.4,33.1,29.03,East,81,0.0,5.4,27,0.00,,---,0.00,VWS V14.01,2013-08-14 14:18:00,
2013-08-14 10:23:00,68.7,32.5,29.03,North,0,0.0,4.0,26,0.00,,---,0.00,VWS V14.01,2013-08-14 14:23:00,
2013-08-14 10:28:00,69.3,32.0,29.03,South,185,3.6,4.5,25,0.00,,---,0.00,VWS V14.01,2013-08-14 14:28:00,
2013-08-14 10:33:00,69.6,32.3,29.03,East,93,0.0,2.7,25,0.00,,---,0.00,VWS V14.01,2013-08-14 14:33:00,
2013-08-14 10:38:00,69.8,32.4,29.03,West,268,3.1,5.4,25,0.00,,---,0.00,VWS V14.01,2013-08-14 14:38:00,
2013-08-14 10:43:00,70.2,30.7,29.03,ENE,69,2.7,4.9,23,0.00,,---,0.00,VWS V14.01,2013-08-14 14:43:00,
2013-08-14 10:48:00,70.5,29.9,29.03,ESE,102,0.0,5.8,22,0.00,,---,0.00,VWS V14.01,2013-08-14 14:48:00,
2013-08-14 10:53:00,70.7,31.1,29.03,ESE,110,2.7,4.5,23,0.00,,---,0.00,VWS V14.01,2013-08-14 14:53:00,
2013-08-14 10:58:00,70.5,31.0,29.03,East,85,3.6,5.4,23,0.00,,---,0.00,VWS V14.01,2013-08-14 14:58:00,
2013-08-14 11:03:00,70.9,30.2,29.03,NNE,18,0.0,4.5,22,0.00,,---,0.00,VWS V14.01,2013-08-14 15:03:00,
2013-08-14 11:08:00,71.1,30.3,29.03,East,99,4.0,4.0,22,0.00,,---,0.00,VWS V14.01,2013-08-14 15:08:00,
2013-08-14 11:13:00,71.1,30.3,29.03,SSW,212,0.0,2.7,22,0.00,,---,0.00,VWS V14.01,2013-08-14 15:13:00,
2013-08-14 11:18:00,71.1,30.3,29.03,East,88,3.1,4.9,22,0.00,,---,0.00,VWS V14.01,2013-08-14 15:18:00,
2013-08-14 11:23:00,70.9,30.2,29.03,ESE,110,2.7,4.5,22,0.00,,---,0.00,VWS V14.01,2013-08-14 15:23:00,
2013-08-14 11:28:00,70.9,30.2,29.03,ENE,64,3.1,4.5,22,0.00,,---,0.00,VWS V14.01,2013-08-14 15:28:00,
2013-08-14 11:33:00,71.2,31.6,29.03,ENE,57,3.1,3.1,23,0.00,,---,0.00,VWS V14.01,2013-08-14 15:33:00,
2013-08-14 11:38:00,71.4,30.6,29.03,SE,137,3.6,4.5,22,0.00,,---,0.00,VWS V14.01,2013-08-14 15:38:00,
2013-08-14 11:43:00,71.6,30.8,29.03,SW,231,4.0,4.0,22,0.00,,---,0.00,VWS V14.01,2013-08-14 15:43:00,
2013-08-14 11:48:00,71.4,30.6,29.03,ENE,66,2.7,3.6,22,0.00,,---,0.00,VWS V14.01,2013-08-14 15:48:00,
2013-08-14 11:55:00,71.6,31.9,29.03,ENE,74,0.0,3.1,23,0.00,,---,0.00,VWS V14.01,2013-08-14 15:55:00,
2013-08-14 12:00:00,71.4,31.7,29.03,NE,46,0.0,3.1,23,0.00,,---,0.00,VWS V14.01,2013-08-14 16:00:00,
2013-08-14 12:06:00,71.8,32.0,29.03,NE,49,0.0,4.5,23,0.00,,---,0.00,VWS V14.01,2013-08-14 16:06:00,
2013-08-14 12:11:00,71.8,32.0,29.03,East,95,0.0,4.0,23,0.00,,---,0.00,VWS V14.01,2013-08-14 16:11:00,
2013-08-14 12:16:00,72.1,32.3,29.03,ENE,75,2.7,4.9,23,0.00,,---,0.00,VWS V14.01,2013-08-14 16:16:00,
2013-08-14 12:23:00,72.0,32.2,29.03,North,0,3.6,6.3,23,0.00,,---,0.00,VWS V14.01,2013-08-14 16:23:00,
2013-08-14 12:28:00,72.0,31.1,29.03,ENE,72,0.0,0.0,22,0.00,,---,0.00,VWS V14.01,2013-08-14 16:28:00,
2013-08-14 12:33:00,72.3,33.5,29.03,ESE,102,6.3,6.3,24,0.00,,---,0.00,VWS V14.01,2013-08-14 16:33:00,
2013-08-14 12:38:00,72.5,32.6,29.03,ENE,67,5.8,5.8,23,0.00,,---,0.00,VWS V14.01,2013-08-14 16:38:00,
2013-08-14 12:43:00,72.1,32.3,29.03,NE,42,0.0,5.4,23,0.00,,---,0.00,VWS V14.01,2013-08-14 16:43:00,
2013-08-14 12:48:00,72.0,31.1,29.03,NW,309,0.0,3.6,22,0.00,,---,0.00,VWS V14.01,2013-08-14 16:48:00,
2013-08-14 12:55:00,72.1,33.4,29.03,ENE,60,2.7,4.5,24,0.00,,---,0.00,VWS V14.01,2013-08-14 16:55:00,
2013-08-14 13:01:00,72.3,33.5,29.03,ESE,110,4.0,4.0,24,0.00,,---,0.00,VWS V14.01,2013-08-14 17:01:00,
2013-08-14 13:06:00,72.9,36.0,29.03,NE,43,0.0,4.5,26,0.00,,---,0.00,VWS V14.01,2013-08-14 17:06:00,
2013-08-14 13:11:00,72.7,30.5,29.03,NE,37,4.9,6.3,21,0.00,,---,0.00,VWS V14.01,2013-08-14 17:11:00,
2013-08-14 13:16:00,73.0,33.1,29.03,NNW,334,3.6,5.8,23,0.00,,---,0.00,VWS V14.01,2013-08-14 17:16:00,
2013-08-14 13:21:00,72.9,31.8,29.03,East,82,0.0,3.6,22,0.00,,---,0.00,VWS V14.01,2013-08-14 17:21:00,
2013-08-14 13:26:00,72.0,32.2,29.03,ENE,67,0.0,3.1,23,0.00,,---,0.00,VWS V14.01,2013-08-14 17:26:00,
2013-08-14 13:31:00,71.8,32.0,29.03,WNW,297,0.0,0.0,23,0.00,,---,0.00,VWS V14.01,2013-08-14 17:31:00,
2013-08-14 13:37:00,71.2,31.6,29.03,ENE,74,0.0,4.0,23,0.00,,---,0.00,VWS V14.01,2013-08-14 17:37:00,
2013-08-14 13:43:00,70.7,34.2,29.03,SSW,209,0.0,4.9,26,0.00,,---,0.00,VWS V14.01,2013-08-14 17:43:00,
2013-08-14 13:48:00,70.3,32.9,29.03,NE,37,0.0,4.5,25,0.00,,---,0.00,VWS V14.01,2013-08-14 17:48:00,
2013-08-14 13:53:00,69.8,32.4,29.03,East,86,0.0,4.5,25,0.00,,---,0.00,VWS V14.01,2013-08-14 17:53:00,
2013-08-14 13:58:00,69.8,34.3,29.03,SE,126,0.0,5.4,27,0.00,,---,0.00,VWS V14.01,2013-08-14 17:58:00,
2013-08-14 14:03:00,69.8,35.3,29.06,ESE,120,0.0,3.1,28,0.00,,---,0.00,VWS V14.01,2013-08-14 18:03:00,
2013-08-14 14:09:00,70.0,38.0,29.06,SE,132,2.7,5.4,31,0.00,,---,0.00,VWS V14.01,2013-08-14 18:09:00,
2013-08-14 14:19:00,70.2,33.7,29.06,East,96,0.0,0.0,26,0.00,,---,0.00,VWS V14.01,2013-08-14 18:19:00,
2013-08-14 14:26:00,70.0,33.5,29.06,ESE,119,4.0,5.4,26,0.00,,---,0.00,VWS V14.01,2013-08-14 18:26:00,
2013-08-14 14:32:00,69.6,34.2,29.06,SSE,167,3.1,5.4,27,0.00,,---,0.00,VWS V14.01,2013-08-14 18:32:00,
2013-08-14 14:38:00,69.3,37.4,29.06,East,84,3.6,4.5,31,0.00,,---,0.00,VWS V14.01,2013-08-14 18:38:00,
2013-08-14 14:43:00,69.1,35.5,29.06,SE,130,5.4,5.4,29,0.00,,---,0.00,VWS V14.01,2013-08-14 18:43:00,
2013-08-14 14:49:00,68.7,35.2,29.06,SE,141,6.3,6.3,29,0.00,,---,0.00,VWS V14.01,2013-08-14 18:49:00,
2013-08-14 14:56:00,68.7,34.3,29.06,SE,124,2.7,4.5,28,0.00,,---,0.00,VWS V14.01,2013-08-14 18:56:00,
2013-08-14 15:02:00,68.5,33.3,29.06,ENE,59,0.0,4.0,27,0.00,,---,0.00,VWS V14.01,2013-08-14 19:02:00,
2013-08-14 15:08:00,68.4,37.4,29.06,ESE,102,0.0,0.0,32,0.00,,---,0.00,VWS V14.01,2013-08-14 19:08:00,
2013-08-14 15:13:00,68.2,35.6,29.06,East,94,4.0,5.4,30,0.00,,---,0.00,VWS V14.01,2013-08-14 19:13:00,
2013-08-14 15:19:00,68.2,37.2,29.06,SE,139,4.9,5.4,32,0.00,,---,0.00,VWS V14.01,2013-08-14 19:19:00,
2013-08-14 15:25:00,68.2,38.0,29.06,NE,53,0.0,0.0,33,0.00,,---,0.00,VWS V14.01,2013-08-14 19:25:00,
2013-08-14 15:31:00,68.4,38.2,29.03,NE,43,0.0,0.0,33,0.00,,---,0.00,VWS V14.01,2013-08-14 19:31:00,
2013-08-14 15:37:00,68.2,36.4,29.03,NNW,347,4.5,5.8,31,0.00,,---,0.00,VWS V14.01,2013-08-14 19:37:00,
2013-08-14 15:44:00,68.4,36.6,29.03,ESE,119,3.6,4.9,31,0.00,,---,0.00,VWS V14.01,2013-08-14 19:44:00,
2013-08-14 15:49:00,68.4,38.2,29.03,SE,132,0.0,7.4,33,0.00,,---,0.00,VWS V14.01,2013-08-14 19:49:00,
2013-08-14 15:54:00,68.2,37.2,29.03,SE,134,5.4,6.9,32,0.00,,---,0.00,VWS V14.01,2013-08-14 19:54:00,
2013-08-14 15:59:00,68.2,35.6,29.03,East,96,0.0,4.9,30,0.00,,---,0.00,VWS V14.01,2013-08-14 19:59:00,
2013-08-14 16:04:00,68.0,37.1,29.03,NW,318,0.0,4.9,32,0.00,,---,0.00,VWS V14.01,2013-08-14 20:04:00,
2013-08-14 16:10:00,68.0,37.8,29.03,NE,40,0.0,4.0,33,0.00,,---,0.00,VWS V14.01,2013-08-14 20:10:00,
2013-08-14 16:16:00,68.0,37.1,29.06,South,191,0.0,5.4,32,0.00,,---,0.00,VWS V14.01,2013-08-14 20:16:00,
2013-08-14 16:22:00,67.8,37.7,29.06,ESE,112,0.0,0.0,33,0.00,,---,0.00,VWS V14.01,2013-08-14 20:22:00,
2013-08-14 16:29:00,67.6,37.5,29.06,East,94,0.0,6.3,33,0.00,,---,0.00,VWS V14.01,2013-08-14 20:29:00,
2013-08-14 16:34:00,67.6,37.5,29.06,ESE,116,0.0,3.1,33,0.00,,---,0.00,VWS V14.01,2013-08-14 20:34:00,
2013-08-14 16:40:00,67.8,38.5,29.06,WSW,251,2.7,6.3,34,0.00,,---,0.00,VWS V14.01,2013-08-14 20:40:00,
2013-08-14 16:45:00,67.8,37.7,29.06,NNW,340,3.1,6.7,33,0.00,,---,0.00,VWS V14.01,2013-08-14 20:45:00,
2013-08-14 16:50:00,68.0,37.1,29.06,East,88,0.0,2.7,32,0.00,,---,0.00,VWS V14.01,2013-08-14 20:50:00,
2013-08-14 16:56:00,68.0,37.1,29.06,East,79,2.7,4.0,32,0.00,,---,0.00,VWS V14.01,2013-08-14 20:56:00,
2013-08-14 17:02:00,68.2,38.0,29.06,ENE,74,0.0,4.0,33,0.00,,---,0.00,VWS V14.01,2013-08-14 21:02:00,
2013-08-14 17:07:00,68.2,34.7,29.06,SE,134,4.5,4.5,29,0.00,,---,0.00,VWS V14.01,2013-08-14 21:07:00,
2013-08-14 17:12:00,68.4,37.4,29.06,SSW,204,0.0,0.0,32,0.00,,---,0.00,VWS V14.01,2013-08-14 21:12:00,
2013-08-14 17:17:00,68.5,36.7,29.06,East,91,0.0,6.7,31,0.00,,---,0.00,VWS V14.01,2013-08-14 21:17:00,
2013-08-14 17:22:00,69.1,35.5,29.06,NE,53,0.0,3.1,29,0.00,,---,0.00,VWS V14.01,2013-08-14 21:22:00,
2013-08-14 17:27:00,69.1,38.0,29.06,WNW,295,4.5,4.5,32,0.00,,---,0.00,VWS V14.01,2013-08-14 21:27:00,
2013-08-14 17:33:00,69.1,38.8,29.06,ENE,69,0.0,0.0,33,0.00,,---,0.00,VWS V14.01,2013-08-14 21:33:00,
2013-08-14 17:39:00,68.7,39.2,29.06,WNW,299,3.6,4.9,34,0.00,,---,0.00,VWS V14.01,2013-08-14 21:39:00,
2013-08-14 17:44:00,68.5,37.5,29.06,NE,51,0.0,4.9,32,0.00,,---,0.00,VWS V14.01,2013-08-14 21:44:00,
2013-08-14 17:49:00,68.0,37.8,29.06,NE,44,0.0,3.6,33,0.00,,---,0.00,VWS V14.01,2013-08-14 21:49:00,
2013-08-14 17:55:00,67.6,37.5,29.06,NE,49,0.0,0.0,33,0.00,,---,0.00,VWS V14.01,2013-08-14 21:55:00,
2013-08-14 18:00:00,67.3,37.2,29.06,South,173,3.1,4.9,33,0.00,,---,0.00,VWS V14.01,2013-08-14 22:00:00,
2013-08-14 18:05:00,67.1,37.1,29.06,NNE,15,0.0,2.7,33,0.00,,---,0.00,VWS V14.01,2013-08-14 22:05:00,
2013-08-14 18:11:00,66.9,37.7,29.06,SW,229,0.0,0.0,34,0.00,,---,0.00,VWS V14.01,2013-08-14 22:11:00,
2013-08-14 18:16:00,66.6,37.3,29.09,East,89,0.0,2.7,34,0.00,,---,0.00,VWS V14.01,2013-08-14 22:16:00,
2013-08-14 18:21:00,66.4,37.2,29.09,East,100,0.0,3.1,34,0.00,,---,0.00,VWS V14.01,2013-08-14 22:21:00,
2013-08-14 18:26:00,66.4,37.2,29.09,NW,317,0.0,0.0,34,0.00,,---,0.00,VWS V14.01,2013-08-14 22:26:00,
2013-08-14 18:31:00,66.2,37.8,29.09,North,6,0.0,0.0,35,0.00,,---,0.00,VWS V14.01,2013-08-14 22:31:00,
2013-08-14 18:36:00,66.0,37.6,29.09,SE,134,0.0,3.1,35,0.00,,---,0.00,VWS V14.01,2013-08-14 22:36:00,
2013-08-14 18:41:00,65.8,38.2,29.09,SE,134,0.0,0.0,36,0.00,,---,0.00,VWS V14.01,2013-08-14 22:41:00,
2013-08-14 18:46:00,65.8,38.9,29.09,NNW,343,0.0,2.7,37,0.00,,---,0.00,VWS V14.01,2013-08-14 22:46:00,
2013-08-14 18:52:00,65.7,39.4,29.09,ENE,73,0.0,3.1,38,0.00,,---,0.00,VWS V14.01,2013-08-14 22:52:00,
2013-08-14 18:57:00,65.5,39.2,29.09,West,279,0.0,4.9,38,0.00,,---,0.00,VWS V14.01,2013-08-14 22:57:00,
2013-08-14 19:02:00,65.3,37.7,29.09,NW,308,0.0,0.0,36,0.00,,---,0.00,VWS V14.01,2013-08-14 23:02:00,
2013-08-14 19:07:00,65.3,36.2,29.09,NNW,335,0.0,0.0,34,0.00,,---,0.00,VWS V14.01,2013-08-14 23:07:00,
2013-08-14 19:12:00,65.3,37.0,29.09,NNW,335,0.0,0.0,35,0.00,,---,0.00,VWS V14.01,2013-08-14 23:12:00,
2013-08-14 19:17:00,65.1,36.1,29.12,NNW,335,0.0,0.0,34,0.00,,---,0.00,VWS V14.01,2013-08-14 23:17:00,
2013-08-14 19:22:00,64.9,36.7,29.12,NNW,335,0.0,0.0,35,0.00,,---,0.00,VWS V14.01,2013-08-14 23:22:00,
2013-08-14 19:27:00,64.8,37.2,29.12,NNW,335,0.0,0.0,36,0.00,,---,0.00,VWS V14.01,2013-08-14 23:27:00,
2013-08-14 19:32:00,64.6,37.0,29.12,NNW,335,0.0,0.0,36,0.00,,---,0.00,VWS V14.01,2013-08-14 23:32:00,
2013-08-14 19:37:00,64.4,38.3,29.12,SSE,162,0.0,0.0,38,0.00,,---,0.00,VWS V14.01,2013-08-14 23:37:00,
2013-08-14 19:42:00,64.0,37.9,29.12,SE,144,0.0,0.0,38,0.00,,---,0.00,VWS V14.01,2013-08-14 23:42:00,
2013-08-14 19:47:00,63.9,38.5,29.12,SE,144,0.0,0.0,39,0.00,,---,0.00,VWS V14.01,2013-08-14 23:47:00,
2013-08-14 19:52:00,63.7,40.2,29.12,SE,144,0.0,0.0,42,0.00,,---,0.00,VWS V14.01,2013-08-14 23:52:00,
2013-08-14 19:57:00,63.7,40.8,29.12,SE,144,0.0,0.0,43,0.00,,---,0.00,VWS V14.01,2013-08-14 23:57:00,
2013-08-14 20:02:00,63.5,40.6,29.12,SE,144,0.0,0.0,43,0.00,,---,0.00,VWS V14.01,2013-08-15 00:02:00,
2013-08-14 20:07:00,63.3,40.5,29.12,SE,144,0.0,0.0,43,0.00,,---,0.00,VWS V14.01,2013-08-15 00:07:00,
2013-08-14 20:12:00,63.1,40.9,29.12,SE,144,0.0,0.0,44,0.00,,---,0.00,VWS V14.01,2013-08-15 00:12:00,
2013-08-14 20:17:00,63.0,40.1,29.12,SE,144,0.0,0.0,43,0.00,,---,0.00,VWS V14.01,2013-08-15 00:17:00,
2013-08-14 20:22:00,62.8,40.0,29.12,SE,144,0.0,0.0,43,0.00,,---,0.00,VWS V14.01,2013-08-15 00:22:00,
2013-08-14 20:27:00,62.8,39.4,29.12,SE,144,0.0,0.0,42,0.00,,---,0.00,VWS V14.01,2013-08-15 00:27:00,
2013-08-14 20:32:00,62.6,39.8,29.15,SE,144,0.0,0.0,43,0.00,,---,0.00,VWS V14.01,2013-08-15 00:32:00,
2013-08-14 20:37:00,62.4,39.7,29.15,SE,144,0.0,0.0,43,0.00,,---,0.00,VWS V14.01,2013-08-15 00:37:00,
2013-08-14 20:42:00,62.2,39.5,29.15,SE,144,0.0,0.0,43,0.00,,---,0.00,VWS V14.01,2013-08-15 00:42:00,
2013-08-14 20:47:00,61.9,39.8,29.15,SE,144,0.0,0.0,44,0.00,,---,0.00,VWS V14.01,2013-08-15 00:47:00,
2013-08-14 20:52:00,61.9,39.8,29.15,SE,144,0.0,0.0,44,0.00,,---,0.00,VWS V14.01,2013-08-15 00:52:00,
2013-08-14 20:57:00,61.7,40.7,29.15,SE,144,0.0,0.0,46,0.00,,---,0.00,VWS V14.01,2013-08-15 00:57:00,
2013-08-14 21:02:00,61.7,40.7,29.15,SE,144,0.0,0.0,46,0.00,,---,0.00,VWS V14.01,2013-08-15 01:02:00,
2013-08-14 21:07:00,61.7,40.7,29.15,SE,144,0.0,0.0,46,0.00,,---,0.00,VWS V14.01,2013-08-15 01:07:00,
2013-08-14 21:12:00,61.5,40.6,29.15,SE,144,0.0,0.0,46,0.00,,---,0.00,VWS V14.01,2013-08-15 01:12:00,
2013-08-14 21:17:00,61.3,40.4,29.18,SE,144,0.0,0.0,46,0.00,,---,0.00,VWS V14.01,2013-08-15 01:17:00,
2013-08-14 21:22:00,61.3,40.4,29.18,SE,144,0.0,0.0,46,0.00,,---,0.00,VWS V14.01,2013-08-15 01:22:00,
2013-08-14 21:27:00,61.3,41.0,29.18,SE,144,0.0,0.0,47,0.00,,---,0.00,VWS V14.01,2013-08-15 01:27:00,
2013-08-14 21:32:00,61.3,41.5,29.18,SE,144,0.0,0.0,48,0.00,,---,0.00,VWS V14.01,2013-08-15 01:32:00,
2013-08-14 21:37:00,61.2,41.9,29.18,SE,144,0.0,0.0,49,0.00,,---,0.00,VWS V14.01,2013-08-15 01:37:00,
2013-08-14 21:42:00,61.2,41.9,29.18,SE,144,0.0,0.0,49,0.00,,---,0.00,VWS V14.01,2013-08-15 01:42:00,
2013-08-14 21:47:00,61.2,41.3,29.18,SE,144,0.0,0.0,48,0.00,,---,0.00,VWS V14.01,2013-08-15 01:47:00,
2013-08-14 21:52:00,61.2,41.3,29.18,SE,144,0.0,0.0,48,0.00,,---,0.00,VWS V14.01,2013-08-15 01:52:00,
2013-08-14 21:57:00,61.0,41.2,29.18,SE,144,0.0,0.0,48,0.00,,---,0.00,VWS V14.01,2013-08-15 01:57:00,
2013-08-14 22:02:00,61.0,41.2,29.18,SE,144,0.0,0.0,48,0.00,,---,0.00,VWS V14.01,2013-08-15 02:02:00,
2013-08-14 22:07:00,61.0,41.2,29.18,SE,144,0.0,0.0,48,0.00,,---,0.00,VWS V14.01,2013-08-15 02:07:00,
2013-08-14 22:12:00,60.8,41.0,29.18,SE,144,0.0,0.0,48,0.00,,---,0.00,VWS V14.01,2013-08-15 02:12:00,
2013-08-14 22:17:00,60.8,41.5,29.18,SE,144,0.0,0.0,49,0.00,,---,0.00,VWS V14.01,2013-08-15 02:17:00,
2013-08-14 22:22:00,60.6,41.9,29.18,SE,144,0.0,0.0,50,0.00,,---,0.00,VWS V14.01,2013-08-15 02:22:00,
2013-08-14 22:27:00,60.6,41.9,29.18,SE,144,0.0,0.0,50,0.00,,---,0.00,VWS V14.01,2013-08-15 02:27:00,
2013-08-14 22:32:00,60.4,41.7,29.21,SE,144,0.0,0.0,50,0.00,,---,0.00,VWS V14.01,2013-08-15 02:32:00,
2013-08-14 22:37:00,60.1,41.4,29.21,SE,144,0.0,0.0,50,0.00,,---,0.00,VWS V14.01,2013-08-15 02:37:00,
2013-08-14 22:42:00,60.1,41.4,29.21,SE,144,0.0,0.0,50,0.00,,---,0.00,VWS V14.01,2013-08-15 02:42:00,
2013-08-14 22:47:00,59.7,41.1,29.21,SE,144,0.0,0.0,50,0.00,,---,0.00,VWS V14.01,2013-08-15 02:47:00,
2013-08-14 22:52:00,59.5,40.9,29.21,SE,144,0.0,0.0,50,0.00,,---,0.00,VWS V14.01,2013-08-15 02:52:00,
2013-08-14 22:57:00,59.5,42.4,29.21,SE,144,0.0,0.0,53,0.00,,---,0.00,VWS V14.01,2013-08-15 02:57:00,
2013-08-14 23:02:00,59.4,42.2,29.21,SE,144,0.0,0.0,53,0.00,,---,0.00,VWS V14.01,2013-08-15 03:02:00,
2013-08-14 23:07:00,59.4,42.7,29.21,SE,144,0.0,0.0,54,0.00,,---,0.00,VWS V14.01,2013-08-15 03:07:00,
2013-08-14 23:12:00,59.2,43.0,29.21,SE,144,0.0,0.0,55,0.00,,---,0.00,VWS V14.01,2013-08-15 03:12:00,
2013-08-14 23:17:00,59.4,43.2,29.21,SE,144,0.0,0.0,55,0.00,,---,0.00,VWS V14.01,2013-08-15 03:17:00,
2013-08-14 23:22:00,59.4,43.2,29.21,SE,144,0.0,0.0,55,0.00,,---,0.00,VWS V14.01,2013-08-15 03:22:00,
2013-08-14 23:27:00,59.2,43.0,29.21,SE,144,0.0,0.0,55,0.00,,---,0.00,VWS V14.01,2013-08-15 03:27:00,
2013-08-14 23:32:00,59.0,42.9,29.21,SE,144,0.0,0.0,55,0.00,,---,0.00,VWS V14.01,2013-08-15 03:32:00,
2013-08-14 23:37:00,59.2,43.5,29.21,SE,144,0.0,0.0,56,0.00,,---,0.00,VWS V14.01,2013-08-15 03:37:00,
2013-08-14 23:42:00,59.0,43.3,29.21,SE,144,0.0,0.0,56,0.00,,---,0.00,VWS V14.01,2013-08-15 03:42:00,
2013-08-14 23:48:00,59.0,43.8,29.21,SE,144,0.0,0.0,57,0.00,,---,0.00,VWS V14.01,2013-08-15 03:48:00,
2013-08-14 23:53:00,59.0,43.8,29.21,SE,144,0.0,0.0,57,0.00,,---,0.00,VWS V14.01,2013-08-15 03:53:00,
2013-08-14 23:58:00,58.8,43.6,29.21,SE,144,0.0,0.0,57,0.00,,---,0.00,VWS V14.01,2013-08-15 03:58:00,